Tiempo atmosférico en la estación meteorológica de Ólvega, Soria (1039 m.)



Fecha
DESCASC
Temp. máxima en grados centígrados (hora)
DESCASC
Temp. mínima en grados centígrados (hora)
DESCASC
Temp. media en grados centígrados
DESCASC
Racha de viento máxima en m/sg (hora)
DESCASC
Velocidad máxima media en intervalos de 10 minutos(hora)
DESCASC
Precipitaciones diarias en mm
DESCASC
Precipitaciones de 00:00 a 06:00 en mm
DESCASC
Precipitaciones de 06:00 a 12:00 en mm
DESCASC
Precipitaciones de 12:00 a 18:00 en mm
DESCASC
Precipitaciones de 18:00 a 24:00 en mm
DESCASC
28-02-2021 10.6 (13:20) -1 (07:40) 4.8 12.5 (19:50) 8.61 (20:10) 0.2 0 0 0.2 0
27-02-2021 12.6 (14:20) 1 (03:00) 6.8 8.61 (13:30) 5.28 (17:50) 0 0 0 0 0
26-02-2021 12.8 (13:40) 2.7 (02:20) 7.8 6.11 (16:00) 4.17 (16:10) 0 0 0 0 0
25-02-2021 13 (11:20) 3.1 (00:00) 8 6.11 (00:10) 4.17 (00:50) 0 0 0 0 0
24-02-2021 15.1 (15:40) 4.3 (00:00) 9.7 10.83 (12:50) 6.39 (11:50) 0 0 0 0 0
23-02-2021 11.2 (16:30) 2 (00:00) 6.6 9.17 (13:40) 5.83 (14:20) 0 0 0 0 0
22-02-2021 7.4 (02:30) 1 (00:00) 4.2 11.11 (01:10) 8.06 (01:10) 10 3 4.2 1.6 1.2
21-02-2021 10.5 (00:00) 6.3 (00:00) 8.4 16.94 (18:20) 11.11 (20:50) 0 0 0 0 0
20-02-2021 17.5 (14:40) 8.9 (00:00) 13.2 18.06 (13:10) 10.83 (13:10) 0 0 0 0 0
19-02-2021 15 (16:10) 5.8 (00:00) 10.4 15.28 (14:50) 8.33 (16:20) 0 0 0 0 0
18-02-2021 15 (13:20) 7.5 (00:00) 11.3 15.28 (13:00) 8.89 (13:00) 0 0 0 0 0
17-02-2021 13.8 (17:10) 5.1 (00:00) 9.5 11.11 (22:00) 6.94 (22:00) 0 0 0 0 0
16-02-2021 14.7 (15:10) 5.8 (00:00) 10.3 14.17 (12:40) 8.89 (02:30) 0 0 0 0 0
15-02-2021 13.3 (17:00) 4.1 (00:00) 8.7 10 (02:00) 7.22 (02:10) 0 0 0 0 0
14-02-2021 13.7 (16:10) 1.1 (00:00) 7.4 9.44 (18:40) 5.56 (18:40) 0 0 0 0 0
13-02-2021 10.6 (10:40) 0 (00:00) 5.3 11.11 (12:20) 6.11 (12:50) 0 0 0 0 0
12-02-2021 9.5 (03:40) 2.3 (00:00) 5.9 17.5 (03:50) 8.61 (04:30) 3.6 0 1.4 2.2 0
11-02-2021 12.8 (13:40) 4.2 (00:00) 8.5 14.17 (09:30) 8.33 (10:20) 0.2 0 0 0 0.2
10-02-2021 9.7 (15:30) 1.2 (00:00) 5.4 15.83 (06:40) 9.44 (06:50) 5 5 0 0 0
09-02-2021 6.6 (12:20) 1.4 (00:00) 4 20.28 (11:00) 11.94 (12:20) 14 0.2 2.2 8.8 2.8
08-02-2021 7.1 (11:20) 2 (00:00) 4.5 16.11 (13:50) 9.17 (17:30) 4.2 2.6 0.6 0.8 0.2
07-02-2021 8.8 (14:00) -2.7 (-00:0) 3.1 17.22 (21:30) 10 (21:50) 0 0 0 0 0
06-02-2021 9.3 (13:40) 1.9 (00:00) 5.6 13.61 (01:40) 7.22 (00:40) 3.6 1.4 1.4 0.6 0.2
05-02-2021 12.8 (12:30) 4.5 (00:00) 8.7 12.22 (00:20) 6.39 (00:10) 0 0 0 0 0
04-02-2021 14.3 (14:30) 8.3 (00:00) 11.3 14.17 (04:40) 7.78 (02:20) 0 0 0 0 0
03-02-2021 10.1 (13:50) 5.5 (00:00) 7.8 20.56 (02:40) 12.22 (02:40) 0 0 0 0 0
02-02-2021 12.9 (15:30) 7.5 (00:10) 10.2 18.33 (00:10) 11.11 (22:50) 0 0 0 0 0
01-02-2021 11.8 (16:20) 6 (00:00) 8.9 24.44 (09:40) 11.67 (00:10) 0 0 0 0 0

Gráficas

Temp. máximas Temp. mínimas Temp. medias Precipitaciones Rachas de viento máximas Velocidades máximas media en intervalos de 10 minutos

Datos horarios

Fecha y hora oficial Temperatura (ºC) Velocidad del viento (km/h) Dirección del viento Racha (km/h) Dirección de racha Precipitación (mm) Presión (hPa) Tendencia (hPa) Humedad (%)
2021-03-02 23:00:00 4.8 3 Sur 9 Sudeste 0 -- -- 91
2021-03-02 22:00:00 5.6 3 Noroeste 7 Oeste 0 -- -- 90
2021-03-02 21:00:00 5.7 4 Noroeste 11 Norte 0 -- -- 93
2021-03-02 20:00:00 6.3 6 Norte 23 Sur 0 -- -- 88
2021-03-02 19:00:00 7.1 17 Sur 25 Sudeste 0 -- -- 83
2021-03-02 18:00:00 7.5 13 Sudeste 27 Sudeste 0 -- -- 80
2021-03-02 17:00:00 7.2 15 Sudeste 28 Este 0 -- -- 82
2021-03-02 16:00:00 8.2 13 Este 24 Sudeste 0 -- -- 78
2021-03-02 15:00:00 8.5 15 Sudeste 27 Sudeste 0 -- -- 75
2021-03-02 14:00:00 8.2 15 Sudeste 23 Sudeste 0 -- -- 74
2021-03-02 13:00:00 7.9 16 Sudeste 23 Sudeste 0 -- -- 75
2021-03-02 12:00:00 7.6 14 Sudeste 26 Sudeste 0 -- -- 76
2021-03-02 11:00:00 7 13 Sudeste 23 Sudeste 0.2 -- -- 79
2021-03-02 10:00:00 6.4 13 Sudeste 22 Sudeste 0 -- -- 82
2021-03-02 09:00:00 5.6 12 Sur 18 Sudeste 0 -- -- 86
2021-03-02 08:00:00 4.9 10 Este 19 Este 0 -- -- 93
2021-03-02 07:00:00 4.8 9 Este 23 Sudeste 0 -- -- 93
2021-03-02 06:00:00 5 13 Este 22 Sudeste 0 -- -- 92
2021-03-02 05:00:00 5 9 Sudeste 20 Sudeste 0 -- -- 92
2021-03-02 04:00:00 5.2 15 Sudeste 30 Sudeste 0 -- -- 93
2021-03-02 03:00:00 5 22 Sudeste 34 Sudeste 0 -- -- 93
2021-03-02 02:00:00 5.3 23 Sudeste 41 Sudeste 0 -- -- 91
2021-03-02 01:00:00 5.3 19 Sudeste 33 Sudeste 0 -- -- 90
2021-03-02 00:00:00 5.1 20 Sudeste 36 Sudeste 0 -- -- 93
2021-03-01 23:00:00 5.1 26 Sudeste 36 Sudeste 0 -- -- 95
2021-03-01 22:00:00 5.2 23 Sudeste 37 Sudeste 0 -- -- 94
2021-03-01 21:00:00 5.2 23 Sudeste 39 Sudeste 0 -- -- 95
2021-03-01 20:00:00 5.1 24 Sudeste 40 Sudeste 0 -- -- 96
2021-03-01 19:00:00 5.3 27 Sudeste 41 Sudeste 0 -- -- 95
2021-03-01 18:00:00 6.1 18 Sudeste 37 Sudeste 0 -- -- 89
2021-03-01 17:00:00 6.3 15 Sudeste 33 Sudeste 1 -- -- 89
2021-03-01 16:00:00 6 24 Sudeste 37 Sudeste 0.2 -- -- 88
2021-03-01 15:00:00 6 27 Sudeste 41 Sudeste 0.2 -- -- 90
2021-03-01 14:00:00 6.7 27 Sudeste 47 Sudeste 0 -- -- 83
2021-03-01 13:00:00 6.5 30 Sudeste 46 Sudeste 0 -- -- 84
2021-03-01 12:00:00 5.6 32 Sudeste 48 Sudeste 0 -- -- 87
2021-03-01 11:00:00 4.8 27 Sudeste 48 Sudeste 0 -- -- 89
2021-03-01 10:00:00 5.2 20 Este 41 Sudeste 0 -- -- 85
2021-03-01 09:00:00 4.1 28 Sudeste 42 Sudeste 0 -- -- 89
2021-03-01 08:00:00 3.6 24 Sudeste 36 Sudeste 0 -- -- 90
2021-03-01 07:00:00 2.9 20 Sudeste 32 Sudeste 0 -- -- 89
2021-03-01 06:00:00 3.1 22 Sudeste 36 Sudeste 0 -- -- 87
2021-03-01 05:00:00 2.8 21 Sudeste 32 Sudeste 0 -- -- 90
2021-03-01 04:00:00 2.8 24 Sudeste 40 Sudeste 0 -- -- 90
2021-03-01 03:00:00 2.9 23 Sudeste 38 Sudeste 0 -- -- 89
2021-03-01 02:00:00 3.7 24 Sudeste 36 Sudeste 0 -- -- 89
2021-03-01 01:00:00 3.9 21 Sudeste 35 Este 0 -- -- 88
2021-03-01 00:00:00 4.6 24 Sudeste 37 Sudeste 0 -- -- 85
2021-02-28 23:00:00 5.1 26 Sudeste 36 Sudeste 0 -- -- 84
2021-02-28 22:00:00 5.4 26 Sudeste 40 Sudeste 0 -- -- 86
2021-02-28 21:00:00 6.1 26 Sudeste 44 Sudeste 0 -- -- 84
2021-02-28 20:00:00 6.1 30 Sudeste 45 Sudeste 0 -- -- 86
2021-02-28 19:00:00 6.4 27 Sudeste 41 Sudeste 0 -- -- 86
2021-02-28 18:00:00 6.4 24 Sudeste 40 Sudeste 0.2 -- -- 87
2021-02-28 17:00:00 6.4 27 Sudeste 39 Sudeste 0 -- -- 82
2021-02-28 16:00:00 7 17 Sudeste 24 Sudeste 0 -- -- 75
2021-02-28 15:00:00 8.2 14 Sudeste 31 Sudeste 0 -- -- 72
2021-02-28 14:00:00 9.7 18 Sudeste 33 Sudeste 0 -- -- 60
2021-02-28 13:00:00 10.4 17 Sur 32 Sur 0 -- -- 61
2021-02-28 12:00:00 9 18 Sur 34 Sur 0 -- -- 65
2021-02-28 11:00:00 6 5 Norte 13 Sudeste 0 -- -- 78
2021-02-28 10:00:00 2.3 0 Calma 4 Este 0 -- -- 86
2021-02-28 09:00:00 1.4 3 Norte 8 Sudoeste 0 -- -- 90
2021-02-28 08:00:00 -0.1 3 Sudoeste 9 Este 0 -- -- 93
2021-02-28 07:00:00 -0.4 5 Sudeste 8 Sudeste 0 -- -- 89
2021-02-28 06:00:00 1.8 2 Oeste 6 Este 0 -- -- 87
2021-02-28 05:00:00 1.8 4 Este 6 Este 0 -- -- 85
2021-02-28 04:00:00 2 2 Norte 6 Este 0 -- -- 82
2021-02-28 03:00:00 1.6 0 Calma 9 Nordeste 0 -- -- 81
2021-02-28 02:00:00 1.2 0 Calma 8 Sur 0 -- -- 81
2021-02-28 01:00:00 1 4 Sudeste 12 Nordeste 0 -- -- 80
2021-02-28 00:00:00 2.6 6 Nordeste 11 Nordeste 0 -- -- 73
2021-02-27 23:00:00 3.9 7 Nordeste 12 Nordeste 0 -- -- 67
2021-02-27 22:00:00 4.6 3 Sudeste 10 Noroeste 0 -- -- 66
2021-02-27 21:00:00 5 3 Noroeste 13 Noroeste 0 -- -- 66
2021-02-27 20:00:00 5 4 Sur 11 Nordeste 0 -- -- 70
2021-02-27 19:00:00 7.3 9 Norte 24 Norte 0 -- -- 61
2021-02-27 18:00:00 9.8 18 Norte 27 Nordeste 0 -- -- 53
2021-02-27 17:00:00 10.9 18 Norte 28 Norte 0 -- -- 50
2021-02-27 16:00:00 11.5 17 Nordeste 27 Norte 0 -- -- 54
2021-02-27 15:00:00 12.5 15 Norte 27 Norte 0 -- -- 50
2021-02-27 14:00:00 12.2 14 Norte 31 Nordeste 0 -- -- 49
2021-02-27 13:00:00 11.3 12 Norte 24 Norte 0 -- -- 56
2021-02-27 12:00:00 9.9 14 Norte 25 Norte 0 -- -- 63
2021-02-27 11:00:00 9 13 Norte 21 Norte 0 -- -- 66
2021-02-27 10:00:00 7.8 12 Norte 17 Norte 0 -- -- 70
2021-02-27 09:00:00 6.6 3 Sudeste 9 Sudeste 0 -- -- 76
2021-02-27 08:00:00 2.4 5 Sudeste 9 Sudeste 0 -- -- 88
2021-02-27 07:00:00 2.2 8 Sudeste 10 Sudeste 0 -- -- 92
2021-02-27 06:00:00 1.5 4 Sudoeste 9 Sudeste 0 -- -- 97
2021-02-27 05:00:00 1.4 2 Sur 11 Este 0 -- -- 95
2021-02-27 04:00:00 1.8 4 Sudeste 9 Sudeste 0 -- -- 97
2021-02-27 03:00:00 1 3 Sudeste 8 Sudeste 0 -- -- 96
2021-02-27 02:00:00 1.6 2 Sudeste 9 Sudeste 0 -- -- 95
2021-02-27 01:00:00 2.5 6 Sudeste 10 Sur 0 -- -- 95
2021-02-27 00:00:00 3 3 Sur 8 Sudeste 0 -- -- 93
2021-02-26 23:00:00 3.7 4 Sudeste 7 Sudeste 0 -- -- 93
2021-02-26 22:00:00 4.2 0 Calma 5 Sur 0 -- -- 94
2021-02-26 21:00:00 5.4 3 Sur 4 Sur 0 -- -- 93
2021-02-26 20:00:00 6.1 2 Sur 4 Sur 0 -- -- 90
2021-02-26 19:00:00 8.1 2 Norte 9 Norte 0 -- -- 84
2021-02-26 18:00:00 9.3 8 Norte 16 Norte 0 -- -- 80
2021-02-26 17:00:00 10.7 10 Norte 21 Nordeste 0 -- -- 75
2021-02-26 16:00:00 11.9 14 Norte 22 Norte 0 -- -- 70
2021-02-26 15:00:00 12.8 8 Norte 17 Norte 0 -- -- 67
2021-02-26 14:00:00 12.3 9 Noroeste 14 Noroeste 0 -- -- 67
2021-02-26 13:00:00 12 4 Noroeste 11 Noroeste 0 -- -- 65
2021-02-26 12:00:00 8.4 5 Norte 10 Norte 0 -- -- 79
2021-02-26 11:00:00 7.1 3 Sudeste 9 Sudeste 0 -- -- 84
2021-02-26 10:00:00 6.1 4 Este 12 Este 0 -- -- 88
2021-02-26 09:00:00 5.3 5 Sudeste 10 Nordeste 0 -- -- 93
2021-02-26 08:00:00 4.9 6 Sudeste 11 Este 0 -- -- 93
2021-02-26 07:00:00 5.3 2 Sudeste 5 Este 0 -- -- 95
2021-02-26 06:00:00 5.2 0 Calma 5 Este 0 -- -- 95
2021-02-26 05:00:00 4.9 2 Este 5 Noroeste 0 -- -- 95
2021-02-26 04:00:00 5.2 4 Sudoeste 7 Sudoeste 0 -- -- 96
2021-02-26 03:00:00 3.5 0 Calma 5 Sudeste 0 -- -- 96
2021-02-26 02:00:00 3 2 Sudeste 6 Sudeste 0 -- -- 96
2021-02-26 01:00:00 3.2 3 Sudeste 9 Sudeste 0 -- -- 95
2021-02-26 00:00:00 3.3 3 Sudeste 8 Sudeste 0 -- -- 94
2021-02-25 23:00:00 3.7 5 Sudeste 7 Sudeste 0 -- -- 94
2021-02-25 22:00:00 4.7 2 Sur 5 Este 0 -- -- 93
2021-02-25 21:00:00 5.6 3 Sudeste 12 Sur 0 -- -- 92
2021-02-25 20:00:00 5.7 5 Sudeste 7 Sudeste 0 -- -- 91
2021-02-25 19:00:00 7.2 0 Calma 6 Noroeste 0 -- -- 87
2021-02-25 18:00:00 8.4 5 Norte 14 Norte 0 -- -- 83
2021-02-25 17:00:00 9.6 12 Norte 17 Noroeste 0 -- -- 79
2021-02-25 16:00:00 11 9 Noroeste 18 Noroeste 0 -- -- 73
2021-02-25 15:00:00 11.4 12 Noroeste 16 Norte 0 -- -- 70
2021-02-25 14:00:00 11.5 9 Noroeste 22 Noroeste 0 -- -- 65
2021-02-25 13:00:00 10.8 10 Noroeste 16 Noroeste 0 -- -- 72
2021-02-25 12:00:00 10.7 10 Noroeste 15 Sur 0 -- -- 68
2021-02-25 11:00:00 12.2 8 Sur 19 Sudeste 0 -- -- 44
2021-02-25 10:00:00 9.9 12 Sudeste 17 Sudeste 0 -- -- 55
2021-02-25 09:00:00 5.1 5 Sudeste 12 Sur 0 -- -- 78
2021-02-25 08:00:00 3.1 2 Noroeste 18 Sur 0 -- -- 83
2021-02-25 07:00:00 5.2 13 Sudeste 17 Sudeste 0 -- -- 72
2021-02-25 06:00:00 5 12 Sudeste 16 Sur 0 -- -- 77
2021-02-25 05:00:00 3.6 9 Sudeste 18 Sudeste 0 -- -- 88
2021-02-25 04:00:00 5.4 14 Sudeste 19 Sudeste 0 -- -- 85
2021-02-25 03:00:00 6.5 5 Este 14 Sur 0 -- -- 87
2021-02-25 02:00:00 6.1 5 Sur 10 Sudeste 0 -- -- 88
2021-02-25 01:00:00 6.5 12 Sudeste 22 Sur 0 -- -- 85
2021-02-25 00:00:00 7.2 10 Sudeste 26 Sudeste 0 -- -- 81
2021-02-24 23:00:00 8.3 15 Sudeste 25 Sudeste 0 -- -- 82
2021-02-24 22:00:00 8.8 15 Sudeste 35 Sudeste 0 -- -- 84
2021-02-24 21:00:00 9.6 19 Sudeste 38 Sudeste 0 -- -- 83
2021-02-24 20:00:00 9.8 19 Sudeste 31 Sudeste 0 -- -- 82
2021-02-24 19:00:00 10.1 19 Sudeste 29 Sudeste 0 -- -- 80
2021-02-24 18:00:00 12.5 19 Sudeste 28 Sudeste 0 -- -- 71
2021-02-24 17:00:00 14.5 18 Sudeste 29 Sudeste 0 -- -- 57
2021-02-24 16:00:00 15 16 Sur 33 Sudeste 0 -- -- 49
2021-02-24 15:00:00 14.7 15 Sur 35 Sudeste 0 -- -- 52
2021-02-24 14:00:00 13.7 18 Sur 34 Sudeste 0 -- -- 54
2021-02-24 13:00:00 13.1 17 Sur 39 Sudeste 0 -- -- 56
2021-02-24 12:00:00 12.2 23 Sur 38 Sur 0 -- -- 57
2021-02-24 11:00:00 11.4 21 Sudeste 31 Sudeste 0 -- -- 60
2021-02-24 10:00:00 10 16 Sudeste 23 Sudeste 0 -- -- 65
2021-02-24 09:00:00 7.3 6 Sur 20 Sudeste 0 -- -- 76
2021-02-24 08:00:00 4.3 13 Sudeste 23 Sudeste 0 -- -- 85
2021-02-24 07:00:00 4.8 18 Sudeste 26 Sudeste 0 -- -- 82
2021-02-24 06:00:00 6.6 17 Sur 31 Sur 0 -- -- 75
2021-02-24 05:00:00 6.5 17 Sur 30 Sudeste 0 -- -- 75
2021-02-24 04:00:00 5.4 12 Sudeste 22 Sudeste 0 -- -- 80
2021-02-24 03:00:00 5.3 15 Sudeste 20 Sudeste 0 -- -- 84
2021-02-24 02:00:00 5.4 8 Sudeste 20 Sudeste 0 -- -- 82
2021-02-24 01:00:00 5.5 14 Sudeste 22 Sudeste 0 -- -- 85
2021-02-24 00:00:00 6.1 15 Sudeste 25 Sudeste 0 -- -- 88
2021-02-23 23:00:00 6.4 16 Sudeste 27 Sudeste 0 -- -- 89
2021-02-23 22:00:00 6.5 21 Sudeste 33 Sudeste 0 -- -- 88
2021-02-23 21:00:00 6.7 18 Sudeste 26 Sudeste 0 -- -- 85
2021-02-23 20:00:00 7.1 18 Sudeste 26 Sudeste 0 -- -- 81
2021-02-23 19:00:00 7.9 10 Sudeste 18 Sur 0 -- -- 73
2021-02-23 18:00:00 10.7 13 Sur 29 Sudeste 0 -- -- 59
2021-02-23 17:00:00 11.2 15 Sur 30 Sur 0 -- -- 61
2021-02-23 16:00:00 11 18 Sudeste 33 Sudeste 0 -- -- 60
2021-02-23 15:00:00 10.8 18 Sur 33 Sur 0 -- -- 61
2021-02-23 14:00:00 10.3 19 Sur 33 Sur 0 -- -- 62
2021-02-23 13:00:00 9.4 15 Sur 26 Sur 0 -- -- 70
2021-02-23 12:00:00 7.2 20 Sur 32 Sur 0 -- -- 74
2021-02-23 11:00:00 6.6 13 Sur 26 Sur 0 -- -- 79
2021-02-23 10:00:00 6.2 12 Sudeste 20 Sur 0 -- -- 78
2021-02-23 09:00:00 3.9 2 Sur 15 Sudeste 0 -- -- 91
2021-02-23 08:00:00 2.6 13 Sudeste 21 Sudeste 0 -- -- 90
2021-02-23 07:00:00 2.9 12 Sur 22 Sudeste 0 -- -- 90
2021-02-23 06:00:00 2.9 9 Sudeste 17 Sudeste 0 -- -- 93
2021-02-23 05:00:00 3 6 Sudeste 16 Sudeste 0 -- -- 92
2021-02-23 04:00:00 3.3 9 Sur 20 Sur 0 -- -- 92
2021-02-23 03:00:00 3.4 9 Sur 18 Sur 0 -- -- 94
2021-02-23 02:00:00 3.3 5 Sur 9 Sudeste 0 -- -- 97
2021-02-23 01:00:00 3.3 3 Oeste 6 Oeste 0 -- -- 98
2021-02-23 00:00:00 3.2 2 Noroeste 5 Nordeste 0 -- -- 97
2021-02-22 23:00:00 3.1 0 Calma 9 Nordeste 0.2 -- -- 97
2021-02-22 22:00:00 3.1 6 Nordeste 11 Norte 0.2 -- -- 97
2021-02-22 21:00:00 3.1 6 Nordeste 11 Nordeste 0 -- -- 97
2021-02-22 20:00:00 3.1 4 Norte 11 Norte 0.4 -- -- 97
2021-02-22 19:00:00 3.2 7 Norte 14 Norte 0.4 -- -- 97
2021-02-22 18:00:00 3.2 9 Norte 15 Norte 0.4 -- -- 96
2021-02-22 17:00:00 3.2 9 Norte 19 Norte 0.2 -- -- 96
2021-02-22 16:00:00 3.1 13 Norte 23 Norte 0.2 -- -- 95
2021-02-22 15:00:00 3 11 Norte 25 Nordeste 0.4 -- -- 95
2021-02-22 14:00:00 3.2 13 Norte 23 Norte 0 -- -- 95
2021-02-22 13:00:00 3 13 Norte 20 Norte 0.4 -- -- 95
2021-02-22 12:00:00 2.2 8 Norte 15 Nordeste 0.2 -- -- 95
2021-02-22 11:00:00 1.7 9 Norte 17 Norte 0 -- -- 95
2021-02-22 10:00:00 1.3 8 Norte 15 Nordeste 1 -- -- 96
2021-02-22 09:00:00 1.2 9 Nordeste 20 Nordeste 0.6 -- -- 95
2021-02-22 08:00:00 1.3 11 Nordeste 18 Nordeste 1 -- -- 95
2021-02-22 07:00:00 1.8 10 Norte 18 Norte 1.4 -- -- 93
2021-02-22 06:00:00 2.9 4 Nordeste 21 Sudoeste 0 -- -- 92
2021-02-22 05:00:00 2.5 11 Sudoeste 28 Sur 0.2 -- -- 94
2021-02-22 04:00:00 3.5 6 Sudoeste 33 Sudoeste 2.6 -- -- 93
2021-02-22 03:00:00 6.2 13 Sur 34 Este 0.2 -- -- 85
2021-02-22 02:00:00 7.3 21 Sudeste 40 Sudeste 0 -- -- 90
2021-02-22 01:00:00 7.2 25 Sudeste 40 Sudeste 0 -- -- 91
2021-02-22 00:00:00 7.2 25 Sudeste 42 Sudeste 0 -- -- 91
2021-02-21 23:00:00 7 23 Sudeste 49 Sudeste 0 -- -- 94
2021-02-21 22:00:00 6.9 30 Sudeste 58 Sudeste 0 -- -- 93
2021-02-21 21:00:00 7.1 40 Sudeste 55 Sudeste 0 -- -- 90
2021-02-21 20:00:00 7.3 35 Sudeste 53 Sudeste 0 -- -- 89
2021-02-21 19:00:00 7.5 33 Sudeste 61 Sudeste 0 -- -- 87
2021-02-21 18:00:00 7.9 29 Sudeste 53 Sudeste 0 -- -- 86
2021-02-21 17:00:00 8.5 31 Sudeste 54 Sudeste 0 -- -- 82
2021-02-21 16:00:00 8.8 22 Sudeste 44 Sudeste 0 -- -- 79
2021-02-21 15:00:00 8.1 24 Sudeste 44 Sudeste 0 -- -- 84
2021-02-21 14:00:00 7.5 26 Sudeste 42 Sudeste 0 -- -- 85
2021-02-21 13:00:00 7.8 26 Sudeste 58 Sudeste 0 -- -- 79
2021-02-21 12:00:00 7.3 23 Sudeste 37 Sudeste 0 -- -- 76
2021-02-21 11:00:00 8.1 24 Sudeste 35 Sudeste 0 -- -- 70
2021-02-21 10:00:00 7.3 22 Sudeste 30 Sur 0 -- -- 70
2021-02-21 09:00:00 7.7 17 Sudeste 40 Sudeste 0 -- -- 61
2021-02-21 08:00:00 8.5 23 Sudeste 40 Sudeste 0 -- -- 57
2021-02-21 07:00:00 7.3 31 Sudeste 48 Sudeste 0 -- -- 62
2021-02-21 06:00:00 7.8 27 Sudeste 41 Sudeste 0 -- -- 60
2021-02-21 05:00:00 8.7 24 Sudeste 41 Sudeste 0 -- -- 54
2021-02-21 04:00:00 9.2 25 Sudeste 47 Sudeste 0 -- -- 51
2021-02-21 03:00:00 9.9 23 Sudeste 42 Sudeste 0 -- -- 48
2021-02-21 02:00:00 9.5 31 Sudeste 51 Sudeste 0 -- -- 53
2021-02-21 01:00:00 10.3 29 Sudeste 39 Sudeste 0 -- -- 49
2021-02-21 00:00:00 10.5 26 Sudeste 39 Sudeste 0 -- -- 51
2021-02-20 23:00:00 11.4 22 Sudeste 37 Sudeste 0 -- -- 46
2021-02-20 22:00:00 11.6 22 Sudeste 32 Sudeste 0 -- -- 46
2021-02-20 21:00:00 12.6 19 Sudeste 39 Sur 0 -- -- 41
2021-02-20 20:00:00 13.7 24 Sudeste 37 Sudeste 0 -- -- 37
2021-02-20 19:00:00 14.5 19 Sur 45 Sudeste 0 -- -- 31
2021-02-20 18:00:00 14.4 17 Sur 45 Sudoeste 0 -- -- 31
2021-02-20 17:00:00 15.2 19 Sur 41 Sudeste 0 -- -- 28
2021-02-20 16:00:00 16.5 16 Sur 59 Sudeste 0 -- -- 27
2021-02-20 15:00:00 17.2 30 Sur 58 Sur 0 -- -- 28
2021-02-20 14:00:00 16.5 26 Sur 65 Sur 0 -- -- 29
2021-02-20 13:00:00 15.8 34 Sur 60 Sudeste 0 -- -- 34
2021-02-20 12:00:00 13.8 28 Sur 51 Sudeste 0 -- -- 37
2021-02-20 11:00:00 13.1 34 Sudeste 62 Sudeste 0 -- -- 38
2021-02-20 10:00:00 10.8 34 Sudeste 61 Sudeste 0 -- -- 45
2021-02-20 09:00:00 10.2 34 Sur 54 Sudeste 0 -- -- 48
2021-02-20 08:00:00 9 28 Sudeste 42 Sudeste 0 -- -- 51
2021-02-20 07:00:00 9.2 29 Sudeste 48 Sudeste 0 -- -- 49
2021-02-20 06:00:00 9.3 28 Sudeste 54 Sudeste 0 -- -- 47
2021-02-20 05:00:00 9.4 35 Sudeste 51 Sur 0 -- -- 45
2021-02-20 04:00:00 10.1 30 Sudeste 48 Sudeste 0 -- -- 43
2021-02-20 03:00:00 10.4 28 Sudeste 57 Sudeste 0 -- -- 42
2021-02-20 02:00:00 10.9 28 Sur 52 Sur 0 -- -- 40
2021-02-20 01:00:00 11 32 Sudeste 55 Sudeste 0 -- -- 41
2021-02-20 00:00:00 11 28 Sudeste 48 Sur 0 -- -- 40
2021-02-19 23:00:00 11.3 26 Sur 47 Sur 0 -- -- 40
2021-02-19 22:00:00 11.4 24 Sudeste 50 Sudeste 0 -- -- 41
2021-02-19 21:00:00 11.1 19 Sur 47 Sudeste 0 -- -- 44
2021-02-19 20:00:00 11.3 17 Sur 33 Sudeste 0 -- -- 42
2021-02-19 19:00:00 12 17 Sur 46 Sur 0 -- -- 37
2021-02-19 18:00:00 13.7 24 Sur 48 Sur 0 -- -- 32
2021-02-19 17:00:00 14.8 22 Sudoeste 49 Sur 0 -- -- 35
2021-02-19 16:00:00 14.9 26 Sur 49 Sudeste 0 -- -- 37
2021-02-19 15:00:00 14.6 25 Sudoeste 55 Sudoeste 0 -- -- 38
2021-02-19 14:00:00 14 29 Sur 53 Sudeste 0 -- -- 39
2021-02-19 13:00:00 13.3 13 Sur 40 Sudeste 0 -- -- 48
2021-02-19 12:00:00 11.6 21 Sur 43 Sur 0 -- -- 53
2021-02-19 11:00:00 10.8 21 Sur 46 Sur 0 -- -- 55
2021-02-19 10:00:00 8.8 19 Sudeste 37 Sudeste 0 -- -- 63
2021-02-19 09:00:00 7.1 20 Sudeste 40 Sudeste 0 -- -- 65
2021-02-19 08:00:00 6 20 Sudeste 36 Sudeste 0 -- -- 59
2021-02-19 07:00:00 6.2 19 Sur 31 Sudeste 0 -- -- 61
2021-02-19 06:00:00 6.3 16 Sur 31 Sur 0 -- -- 61
2021-02-19 05:00:00 6.5 15 Sur 30 Sudeste 0 -- -- 62
2021-02-19 04:00:00 6.7 19 Sur 28 Sur 0 -- -- 59
2021-02-19 03:00:00 6.7 15 Sur 32 Sudoeste 0 -- -- 57
2021-02-19 02:00:00 6.8 13 Sur 30 Sur 0 -- -- 56
2021-02-19 01:00:00 7.3 19 Sur 28 Sur 0 -- -- 57
2021-02-19 00:00:00 7.5 16 Sur 28 Sur 0 -- -- 58
2021-02-18 23:00:00 8.1 17 Sur 28 Sudoeste 0 -- -- 58
2021-02-18 22:00:00 8.9 18 Sur 31 Sur 0 -- -- 58
2021-02-18 21:00:00 9.5 17 Sur 32 Sur 0 -- -- 59
2021-02-18 20:00:00 10.4 16 Sur 27 Sudoeste 0 -- -- 58
2021-02-18 19:00:00 10.5 13 Sur 29 Sur 0 -- -- 56
2021-02-18 18:00:00 12.6 15 Sudoeste 35 Sudoeste 0 -- -- 46
2021-02-18 17:00:00 13.3 19 Sudoeste 37 Sudoeste 0 -- -- 45
2021-02-18 16:00:00 13.8 17 Sudoeste 38 Sudoeste 0 -- -- 43
2021-02-18 15:00:00 14.8 17 Sudoeste 40 Sudoeste 0 -- -- 41
2021-02-18 14:00:00 14.9 21 Sudoeste 45 Sudoeste 0 -- -- 39
2021-02-18 13:00:00 13.9 32 Sudoeste 55 Sudoeste 0 -- -- 41
2021-02-18 12:00:00 11.5 27 Sur 45 Sur 0 -- -- 54
2021-02-18 11:00:00 10.1 23 Sur 47 Sur 0 -- -- 58
2021-02-18 10:00:00 9.4 26 Sur 44 Sur 0 -- -- 61
2021-02-18 09:00:00 8.8 26 Sur 47 Sur 0 -- -- 59
2021-02-18 08:00:00 7.9 25 Sur 53 Sur 0 -- -- 62
2021-02-18 07:00:00 8.5 24 Sur 42 Sur 0 -- -- 58
2021-02-18 06:00:00 8.4 24 Sur 44 Sudoeste 0 -- -- 59
2021-02-18 05:00:00 8.5 19 Sur 41 Sur 0 -- -- 60
2021-02-18 04:00:00 9.3 21 Sur 44 Sur 0 -- -- 60
2021-02-18 03:00:00 9.8 22 Sur 44 Sudeste 0 -- -- 58
2021-02-18 02:00:00 9.8 23 Sur 45 Sur 0 -- -- 59
2021-02-18 01:00:00 9.7 25 Sur 47 Sudeste 0 -- -- 60
2021-02-18 00:00:00 10.1 25 Sur 39 Sudeste 0 -- -- 57
2021-02-17 23:00:00 10.1 18 Sur 35 Sudeste 0 -- -- 51
2021-02-17 22:00:00 10.5 25 Sur 40 Sur 0 -- -- 52
2021-02-17 21:00:00 10.8 19 Sur 38 Sur 0 -- -- 52
2021-02-17 20:00:00 10.8 17 Sur 27 Sur 0 -- -- 62
2021-02-17 19:00:00 10.8 13 Sur 26 Sur 0 -- -- 66
2021-02-17 18:00:00 11.9 12 Sur 24 Sudoeste 0 -- -- 62
2021-02-17 17:00:00 13.7 8 Sur 23 Sur 0 -- -- 58
2021-02-17 16:00:00 13.1 13 Sur 30 Sudoeste 0 -- -- 60
2021-02-17 15:00:00 12 17 Sur 33 Sur 0 -- -- 64
2021-02-17 14:00:00 12.4 20 Sur 32 Sur 0 -- -- 65
2021-02-17 13:00:00 11.6 15 Sur 24 Sur 0 -- -- 68
2021-02-17 12:00:00 10 13 Sudeste 21 Sudeste 0 -- -- 77
2021-02-17 11:00:00 9 7 Sur 21 Sur 0 -- -- 78
2021-02-17 10:00:00 8.3 12 Sur 20 Sur 0 -- -- 80
2021-02-17 09:00:00 7.7 8 Sur 26 Sur 0 -- -- 82
2021-02-17 08:00:00 7.2 12 Sur 22 Sur 0 -- -- 84
2021-02-17 07:00:00 7.1 8 Sur 22 Sudeste 0 -- -- 85
2021-02-17 06:00:00 6.6 13 Sudeste 19 Sudeste 0 -- -- 87
2021-02-17 05:00:00 5.7 3 Sur 12 Sudoeste 0 -- -- 90
2021-02-17 04:00:00 5.8 6 Sudeste 9 Sudeste 0 -- -- 93
2021-02-17 03:00:00 5.3 2 Sur 12 Este 0 -- -- 88
2021-02-17 02:00:00 6.8 8 Este 13 Sudoeste 0 -- -- 84
2021-02-17 01:00:00 7.8 8 Sudoeste 15 Sudoeste 0 -- -- 78
2021-02-17 00:00:00 8.1 8 Sur 15 Sur 0 -- -- 77
2021-02-16 23:00:00 8.5 7 Sudoeste 15 Sudoeste 0 -- -- 75
2021-02-16 22:00:00 9.2 7 Sur 14 Sudoeste 0 -- -- 69
2021-02-16 21:00:00 8.3 6 Sudoeste 14 Sur 0 -- -- 72
2021-02-16 20:00:00 8.6 7 Sudoeste 18 Sudoeste 0 -- -- 73
2021-02-16 19:00:00 10.5 12 Sur 26 Sudoeste 0 -- -- 68
2021-02-16 18:00:00 11.8 11 Sur 24 Sudoeste 0 -- -- 63
2021-02-16 17:00:00 13.1 12 Sur 28 Sur 0 -- -- 58
2021-02-16 16:00:00 14.4 15 Sudoeste 35 Sur 0 -- -- 56
2021-02-16 15:00:00 14.5 18 Sur 34 Sur 0 -- -- 54
2021-02-16 14:00:00 13.2 19 Sur 36 Sur 0 -- -- 59
2021-02-16 13:00:00 12.3 20 Sur 51 Sur 0 -- -- 60
2021-02-16 12:00:00 10.2 27 Sur 44 Sur 0 -- -- 66
2021-02-16 11:00:00 10.3 27 Sur 41 Sur 0 -- -- 64
2021-02-16 10:00:00 9.2 28 Sur 49 Sur 0 -- -- 65
2021-02-16 09:00:00 7.1 25 Sur 46 Sur 0 -- -- 74
2021-02-16 08:00:00 6.1 26 Sur 41 Sur 0 -- -- 77
2021-02-16 07:00:00 6.4 6 Norte 33 Este 0 -- -- 75
2021-02-16 06:00:00 6.5 18 Este 35 Este 0 -- -- 75
2021-02-16 05:00:00 6.5 21 Este 35 Este 0 -- -- 76
2021-02-16 04:00:00 6.9 19 Este 42 Este 0 -- -- 74
2021-02-16 03:00:00 6.7 26 Este 49 Este 0 -- -- 75
2021-02-16 02:00:00 6.7 30 Este 46 Este 0 -- -- 79
2021-02-16 01:00:00 6.9 21 Este 42 Este 0 -- -- 82
2021-02-16 00:00:00 7.7 9 Sudeste 26 Este 0 -- -- 79
2021-02-15 23:00:00 7.9 12 Sudeste 23 Sudeste 0 -- -- 78
2021-02-15 22:00:00 7.6 11 Este 20 Este 0 -- -- 80
2021-02-15 21:00:00 8.4 10 Sudeste 19 Sudeste 0 -- -- 77
2021-02-15 20:00:00 8 14 Sudeste 19 Sudeste 0 -- -- 80
2021-02-15 19:00:00 8.4 12 Sudeste 20 Sudeste 0 -- -- 78
2021-02-15 18:00:00 11.1 8 Sudeste 23 Sudeste 0 -- -- 69
2021-02-15 17:00:00 13.3 9 Sudeste 29 Sudeste 0 -- -- 57
2021-02-15 16:00:00 12 13 Sudeste 35 Sudeste 0 -- -- 62
2021-02-15 15:00:00 10.3 24 Sudeste 32 Sudeste 0 -- -- 68
2021-02-15 14:00:00 9.3 14 Sur 24 Sudeste 0 -- -- 72
2021-02-15 13:00:00 9 12 Sudeste 23 Sudeste 0 -- -- 74
2021-02-15 12:00:00 6.9 14 Sur 24 Sur 0 -- -- 80
2021-02-15 11:00:00 6.5 13 Sudeste 26 Sudeste 0 -- -- 82
2021-02-15 10:00:00 5.1 19 Sudeste 29 Sudeste 0 -- -- 86
2021-02-15 09:00:00 5 13 Sur 24 Sur 0 -- -- 85
2021-02-15 08:00:00 5 10 Sur 26 Sudoeste 0 -- -- 85
2021-02-15 07:00:00 4.3 2 Nordeste 9 Sudoeste 0 -- -- 87
2021-02-15 06:00:00 4.9 5 Este 21 Sudeste 0 -- -- 85
2021-02-15 05:00:00 6.4 11 Este 32 Sudeste 0 -- -- 80
2021-02-15 04:00:00 6.6 19 Este 31 Este 0 -- -- 80
2021-02-15 03:00:00 6.3 17 Sudeste 36 Sudeste 0 -- -- 82
2021-02-15 02:00:00 6.6 20 Sudeste 36 Sudeste 0 -- -- 82
2021-02-15 01:00:00 6.4 14 Sudeste 25 Sudeste 0 -- -- 84
2021-02-15 00:00:00 7.2 19 Sudeste 26 Sudeste 0 -- -- 81
2021-02-14 23:00:00 5.8 18 Sudeste 23 Sudeste 0 -- -- 89
2021-02-14 22:00:00 5.6 9 Sur 22 Sudeste 0 -- -- 89
2021-02-14 21:00:00 5 3 Sur 17 Sudeste 0 -- -- 94
2021-02-14 20:00:00 6.7 7 Sudeste 27 Sur 0 -- -- 87
2021-02-14 19:00:00 7.9 18 Sudeste 34 Sudeste 0 -- -- 80
2021-02-14 18:00:00 9.4 13 Sudeste 27 Este 0 -- -- 75
2021-02-14 17:00:00 12.7 18 Sudeste 26 Sudeste 0 -- -- 64
2021-02-14 16:00:00 13.4 18 Sudeste 30 Sudeste 0 -- -- 58
2021-02-14 15:00:00 13.3 12 Sur 28 Sur 0 -- -- 56
2021-02-14 14:00:00 12.4 14 Sur 27 Sur 0 -- -- 59
2021-02-14 13:00:00 11.9 16 Sur 25 Sur 0 -- -- 59
2021-02-14 12:00:00 11.2 15 Sur 24 Sudeste 0 -- -- 60
2021-02-14 11:00:00 10.4 6 Norte 14 Sudeste 0 -- -- 65
2021-02-14 10:00:00 9.8 7 Sudeste 19 Sudeste 0 -- -- 69
2021-02-14 09:00:00 3.7 14 Sudeste 19 Sudeste 0 -- -- 84
2021-02-14 08:00:00 2.4 8 Sur 14 Sudeste 0 -- -- 88
2021-02-14 07:00:00 1.5 3 Sudeste 15 Sudeste 0 -- -- 92
2021-02-14 06:00:00 1.2 6 Sudeste 9 Sudeste 0 -- -- 95
2021-02-14 05:00:00 1.3 5 Sur 9 Sudeste 0 -- -- 95
2021-02-14 04:00:00 1.4 6 Sudeste 9 Sudeste 0 -- -- 96
2021-02-14 03:00:00 1.2 4 Sudeste 11 Sudeste 0 -- -- 94
2021-02-14 02:00:00 2 4 Sur 12 Sudeste 0 -- -- 93
2021-02-14 01:00:00 2.3 5 Sur 10 Sudeste 0 -- -- 93
2021-02-14 00:00:00 2.9 4 Sudoeste 7 Sur 0 -- -- 89
2021-02-13 23:00:00 5.3 3 Nordeste 10 Noroeste 0 -- -- 82
2021-02-13 22:00:00 6.6 3 Norte 6 Noroeste 0 -- -- 76
2021-02-13 21:00:00 6.3 3 Oeste 10 Sudoeste 0 -- -- 77
2021-02-13 20:00:00 6.6 6 Noroeste 13 Norte 0 -- -- 77
2021-02-13 19:00:00 7.2 6 Norte 15 Norte 0 -- -- 73
2021-02-13 18:00:00 8.3 10 Norte 17 Norte 0 -- -- 63
2021-02-13 17:00:00 8.8 10 Norte 18 Norte 0 -- -- 64
2021-02-13 16:00:00 9.9 6 Noroeste 17 Oeste 0 -- -- 57
2021-02-13 15:00:00 9.4 11 Sudoeste 26 Sudoeste 0 -- -- 66
2021-02-13 14:00:00 8.2 13 Sudoeste 37 Sudoeste 0 -- -- 72
2021-02-13 13:00:00 7.1 21 Sudoeste 40 Sudoeste 0 -- -- 74
2021-02-13 08:00:00 -- -- -- -- -- -- -- -- --
2021-02-13 07:00:00 1.5 9 Sudeste 12 Sur 0 -- -- 91
2021-02-13 06:00:00 0.3 8 Sudeste 10 Sudeste 0 -- -- 93
2021-02-13 05:00:00 0.6 4 Sudeste 7 Sudeste 0 -- -- 93
2021-02-13 04:00:00 0.7 4 Sudoeste 10 Este 0 -- -- 91
2021-02-13 03:00:00 0.5 5 Sudeste 13 Sudeste 0 -- -- 92
2021-02-13 02:00:00 0.9 10 Sudeste 17 Sudeste 0 -- -- 92
2021-02-13 01:00:00 3.2 5 Oeste 11 Sudeste 0 -- -- 82
2021-02-13 00:00:00 2.3 4 Sudeste 13 Noroeste 0 -- -- 88
2021-02-12 23:00:00 3.6 2 Sudeste 23 Noroeste 0 -- -- 84
2021-02-12 22:00:00 4.5 8 Sudoeste 21 Noroeste 0 -- -- 83
2021-02-12 21:00:00 6.2 13 Noroeste 30 Noroeste 0 -- -- 78
2021-02-12 20:00:00 7 19 Noroeste 31 Noroeste 0 -- -- 75
2021-02-12 19:00:00 7.8 14 Noroeste 28 Noroeste 0 -- -- 74
2021-02-12 18:00:00 8.3 19 Noroeste 39 Noroeste 0 -- -- 75
2021-02-12 17:00:00 9.2 19 Noroeste 37 Noroeste 0 -- -- 71
2021-02-12 16:00:00 8.8 10 Oeste 27 Oeste 0 -- -- 75
2021-02-12 15:00:00 8.8 17 Oeste 28 Oeste 0 -- -- 79
2021-02-12 14:00:00 7.2 10 Noroeste 38 Oeste 2.2 -- -- 86
2021-02-12 13:00:00 9.2 24 Oeste 39 Sudoeste 0 -- -- 76
2021-02-12 12:00:00 8.6 22 Oeste 37 Oeste 0 -- -- 79
2021-02-12 11:00:00 7.7 22 Sudoeste 42 Sudoeste 0 -- -- 82
2021-02-12 10:00:00 7.9 21 Oeste 40 Oeste 0 -- -- 85
2021-02-12 09:00:00 7.4 18 Sudoeste 40 Sudoeste 0 -- -- 90
2021-02-12 08:00:00 7.2 21 Sudoeste 37 Sudoeste 0.6 -- -- 90
2021-02-12 07:00:00 7.2 17 Sudoeste 43 Sudoeste 0.8 -- -- 90
2021-02-12 06:00:00 7.9 21 Sudoeste 44 Sudoeste 0 -- -- 89
2021-02-12 05:00:00 8.7 26 Sur 50 Sur 0 -- -- 85
2021-02-12 04:00:00 9.4 28 Sur 63 Sur 0 -- -- 86
2021-02-12 03:00:00 9.3 21 Sur 48 Sur 0 -- -- 87
2021-02-12 02:00:00 9.2 18 Sur 39 Sur 0 -- -- 86
2021-02-12 01:00:00 9 15 Sur 37 Sur 0 -- -- 87
2021-02-12 00:00:00 8.8 20 Sur 42 Sudoeste 0 -- -- 88
2021-02-11 23:00:00 8.7 21 Sur 46 Sudoeste 0 -- -- 89
2021-02-11 22:00:00 8.8 18 Sur 40 Sudoeste 0 -- -- 90
2021-02-11 21:00:00 8.7 17 Sur 36 Sur 0 -- -- 91
2021-02-11 20:00:00 8.8 20 Sur 31 Sur 0.2 -- -- 89
2021-02-11 19:00:00 8.7 10 Sudoeste 30 Sur 0 -- -- 91
2021-02-11 18:00:00 10.5 13 Sur 24 Sudoeste 0 -- -- 80
2021-02-11 17:00:00 10.7 11 Sudoeste 37 Sudoeste 0 -- -- 82
2021-02-11 16:00:00 11.5 26 Sudoeste 43 Sudoeste 0 -- -- 78
2021-02-11 15:00:00 11.8 15 Sudoeste 37 Oeste 0 -- -- 76
2021-02-11 14:00:00 12.1 26 Sudoeste 46 Sudoeste 0 -- -- 73
2021-02-11 13:00:00 12 19 Sudoeste 34 Sudoeste 0 -- -- 76
2021-02-11 12:00:00 7.6 14 Sur 33 Sudoeste 0 -- -- 90
2021-02-11 11:00:00 9.3 21 Sudoeste 51 Sudoeste 0 -- -- 82
2021-02-11 10:00:00 7 27 Sudoeste 51 Sudoeste 0 -- -- 87
2021-02-11 09:00:00 5.9 22 Sudoeste 40 Sudoeste 0 -- -- 90
2021-02-11 08:00:00 5.4 23 Sudoeste 46 Sudoeste 0 -- -- 89
2021-02-11 07:00:00 5.1 8 Norte 28 Oeste 0 -- -- 88
2021-02-11 06:00:00 4.6 6 Nordeste 21 Nordeste 0 -- -- 85
2021-02-11 05:00:00 4.8 5 Nordeste 20 Sudoeste 0 -- -- 80
2021-02-11 04:00:00 4.8 5 Sudeste 24 Sudoeste 0 -- -- 74
2021-02-11 03:00:00 5 7 Este 20 Sudoeste 0 -- -- 73
2021-02-11 02:00:00 5.1 9 Sudoeste 21 Sur 0 -- -- 71
2021-02-11 01:00:00 4.4 4 Sur 14 Sudeste 0 -- -- 75
2021-02-11 00:00:00 4.7 7 Sudoeste 17 Sudoeste 0 -- -- 74
2021-02-10 23:00:00 4.8 10 Este 18 Este 0 -- -- 75
2021-02-10 22:00:00 5.1 10 Este 18 Sudeste 0 -- -- 72
2021-02-10 21:00:00 4.8 8 Sudoeste 22 Oeste 0 -- -- 71
2021-02-10 20:00:00 5.3 12 Oeste 28 Oeste 0 -- -- 68
2021-02-10 19:00:00 4.9 13 Sudoeste 39 Oeste 0 -- -- 69
2021-02-10 18:00:00 7.5 14 Sudoeste 35 Oeste 0 -- -- 62
2021-02-10 17:00:00 8.2 15 Sudoeste 35 Sudoeste 0 -- -- 60
2021-02-10 16:00:00 9.2 17 Oeste 37 Oeste 0 -- -- 54
2021-02-10 15:00:00 9 19 Oeste 36 Oeste 0 -- -- 56
2021-02-10 14:00:00 7.7 24 Oeste 42 Oeste 0 -- -- 61
2021-02-10 13:00:00 7.7 20 Oeste 46 Sudoeste 0 -- -- 65
2021-02-10 12:00:00 5.3 21 Oeste 38 Oeste 0 -- -- 74
2021-02-10 11:00:00 5.4 20 Oeste 41 Oeste 0 -- -- 78
2021-02-10 10:00:00 3.2 20 Oeste 49 Oeste 0 -- -- 84
2021-02-10 09:00:00 2.5 22 Sudoeste 46 Sudoeste 0 -- -- 86
2021-02-10 08:00:00 1.9 23 Sudoeste 52 Sudoeste 0 -- -- 88
2021-02-10 07:00:00 1.6 33 Sudoeste 57 Sudoeste 0 -- -- 90
2021-02-10 06:00:00 1.2 30 Sur 53 Sudoeste 1.2 -- -- 92
2021-02-10 05:00:00 1.9 21 Sudoeste 51 Sudoeste 1.2 -- -- 91
2021-02-10 04:00:00 2.7 28 Sudoeste 51 Sudoeste 0 -- -- 90
2021-02-10 03:00:00 2.7 25 Sudoeste 49 Sudoeste 0 -- -- 89
2021-02-10 02:00:00 2.4 23 Sudoeste 41 Sudoeste 0.4 -- -- 92
2021-02-10 01:00:00 1.7 22 Sur 38 Sur 2.2 -- -- 93
2021-02-10 00:00:00 1.9 23 Sudoeste 44 Sur 0 -- -- 91
2021-02-09 23:00:00 2.2 26 Sur 45 Sudoeste 0.6 -- -- 90
2021-02-09 22:00:00 1.8 19 Sur 38 Sudoeste 2 -- -- 92
2021-02-09 21:00:00 3 21 Sudoeste 49 Sudoeste 0 -- -- 84
2021-02-09 20:00:00 3 28 Sudoeste 48 Sudoeste 0 -- -- 83
2021-02-09 19:00:00 3 25 Sudoeste 47 Sudoeste 0.2 -- -- 85
2021-02-09 18:00:00 3.1 27 Sudoeste 44 Sudoeste 0 -- -- 87
2021-02-09 17:00:00 3.7 21 Sudoeste 35 Oeste 0.2 -- -- 86
2021-02-09 16:00:00 3.4 21 Oeste 66 Sudoeste 4.8 -- -- 91
2021-02-09 15:00:00 6.4 32 Sur 65 Sur 2.6 -- -- 86
2021-02-09 14:00:00 6.2 32 Sur 66 Sudoeste 1.2 -- -- 85
2021-02-09 13:00:00 6.3 39 Sur 73 Sur 0 -- -- 85
2021-02-09 12:00:00 6.5 36 Sudoeste 71 Sudoeste 0 -- -- 83
2021-02-09 11:00:00 5.4 42 Sur 73 Sudoeste 0 -- -- 87
2021-02-09 10:00:00 4.1 33 Sur 59 Sudoeste 0 -- -- 88
2021-02-09 09:00:00 3 31 Sur 60 Sur 0.4 -- -- 90
2021-02-09 08:00:00 2.8 33 Sur 61 Sudoeste 0.8 -- -- 90
2021-02-09 07:00:00 2.8 23 Sur 41 Sudoeste 1 -- -- 91
2021-02-09 06:00:00 3.4 20 Sudoeste 45 Sudoeste 0.2 -- -- 91
2021-02-09 05:00:00 4.1 21 Sudoeste 43 Sudoeste 0 -- -- 86
2021-02-09 04:00:00 4 14 Sudoeste 44 Sudoeste 0 -- -- 88
2021-02-09 03:00:00 4.5 14 Sudoeste 41 Sudoeste 0 -- -- 89
2021-02-09 02:00:00 4.5 13 Sudoeste 31 Sudoeste 0 -- -- 88
2021-02-09 01:00:00 4 15 Sudoeste 46 Sudoeste 0 -- -- 85
2021-02-09 00:00:00 4.2 17 Oeste 33 Sudoeste 0 -- -- 86
2021-02-08 23:00:00 3.7 21 Sudoeste 41 Sudoeste 0.2 -- -- 86
2021-02-08 22:00:00 3.8 22 Sudoeste 45 Sudoeste 0 -- -- 83
2021-02-08 21:00:00 4 25 Oeste 49 Oeste 0 -- -- 82
2021-02-08 20:00:00 3.5 23 Sudoeste 50 Sudoeste 0 -- -- 88
2021-02-08 19:00:00 4.3 26 Sudoeste 49 Oeste 0 -- -- 86
2021-02-08 18:00:00 4.8 25 Sudoeste 54 Sudoeste 0 -- -- 83
2021-02-08 17:00:00 6 26 Sudoeste 47 Oeste 0 -- -- 77
2021-02-08 16:00:00 5.6 19 Oeste 44 Oeste 0.2 -- -- 81
2021-02-08 15:00:00 7.1 23 Oeste 40 Sudoeste 0 -- -- 75
2021-02-08 14:00:00 6 23 Sudoeste 58 Sudoeste 0.4 -- -- 80
2021-02-08 13:00:00 6.8 28 Sudoeste 45 Sudoeste 0.2 -- -- 78
2021-02-08 12:00:00 4.7 23 Sudoeste 49 Sudoeste 0 -- -- 87
2021-02-08 11:00:00 6 30 Sudoeste 51 Sudoeste 0 -- -- 82
2021-02-08 10:00:00 3.5 14 Sudoeste 44 Sudoeste 0.4 -- -- 90
2021-02-08 09:00:00 3.6 24 Sudoeste 43 Sur 0 -- -- 89
2021-02-08 08:00:00 3.2 21 Sudoeste 46 Sudoeste 0 -- -- 90
2021-02-08 07:00:00 3.6 22 Sudoeste 48 Sudoeste 0.2 -- -- 90
2021-02-08 06:00:00 3.6 26 Sur 48 Sudoeste 0.2 -- -- 92
2021-02-08 05:00:00 3.2 27 Sur 44 Sudoeste 1.2 -- -- 92
2021-02-08 04:00:00 3.3 24 Sur 53 Sur 0.8 -- -- 92
2021-02-08 03:00:00 3.4 28 Sur 48 Sudoeste 0.2 -- -- 93
2021-02-08 02:00:00 3 22 Sur 54 Sur 0.2 -- -- 93
2021-02-08 01:00:00 2.4 28 Sudoeste 54 Sudoeste 0 -- -- 92
2021-02-08 00:00:00 2.1 15 Sur 39 Sudoeste 0 -- -- 89
2021-02-07 23:00:00 2.3 15 Sur 45 Sudoeste 0 -- -- 86
2021-02-07 22:00:00 2.4 24 Sudoeste 62 Oeste 0 -- -- 86
2021-02-07 21:00:00 3 22 Sudoeste 51 Sudoeste 0 -- -- 86
2021-02-07 20:00:00 3.3 21 Sudoeste 50 Sudoeste 0 -- -- 82
2021-02-07 19:00:00 3.9 24 Sudoeste 46 Sudoeste 0 -- -- 77
2021-02-07 18:00:00 4.6 17 Oeste 42 Sudoeste 0 -- -- 68
2021-02-07 17:00:00 4.8 22 Sudoeste 43 Sudoeste 0 -- -- 65
2021-02-07 16:00:00 5.9 19 Sudoeste 32 Sudoeste 0 -- -- 59
2021-02-07 15:00:00 6.8 15 Oeste 31 Sudoeste 0 -- -- 47
2021-02-07 14:00:00 8.8 13 Sudoeste 22 Sudoeste 0 -- -- 45
2021-02-07 13:00:00 7.4 10 Sudoeste 24 Sudoeste 0 -- -- 52
2021-02-07 12:00:00 7.4 13 Sudoeste 22 Sudoeste 0 -- -- 52
2021-02-07 11:00:00 5.9 3 Nordeste 9 Este 0 -- -- 56
2021-02-07 10:00:00 3.5 0 Calma 9 Este 0 -- -- 68
2021-02-07 09:00:00 -2 7 Este 13 Sudeste 0 -- -- 87
2021-02-07 08:00:00 -2.1 4 Sur 12 Sudeste 0 -- -- 88
2021-02-07 07:00:00 -1.9 6 Sudeste 9 Sudeste 0 -- -- 89
2021-02-07 06:00:00 -1.2 3 Este 6 Este 0 -- -- 86
2021-02-07 05:00:00 0.4 6 Norte 22 Norte 0 -- -- 78
2021-02-07 04:00:00 0.7 8 Norte 23 Nordeste 0 -- -- 81
2021-02-07 03:00:00 1.2 10 Nordeste 20 Nordeste 0 -- -- 84
2021-02-07 02:00:00 1.5 13 Norte 21 Norte 0 -- -- 86
2021-02-07 01:00:00 1.6 13 Norte 24 Norte 0 -- -- 86
2021-02-07 00:00:00 1.9 12 Norte 24 Norte 0 -- -- 91
2021-02-06 23:00:00 2.3 12 Nordeste 22 Norte 0 -- -- 91
2021-02-06 22:00:00 2.6 12 Nordeste 22 Nordeste 0 -- -- 89
2021-02-06 21:00:00 2.9 12 Norte 25 Norte 0 -- -- 90
2021-02-06 20:00:00 3 13 Nordeste 23 Nordeste 0 -- -- 90
2021-02-06 19:00:00 3.3 14 Nordeste 26 Norte 0.2 -- -- 90
2021-02-06 18:00:00 3.8 14 Norte 24 Nordeste 0 -- -- 88
2021-02-06 17:00:00 4.8 15 Norte 29 Norte 0.4 -- -- 86
2021-02-06 16:00:00 5.6 15 Noroeste 25 Noroeste 0.2 -- -- 83
2021-02-06 15:00:00 5.9 16 Noroeste 28 Noroeste 0 -- -- 85
2021-02-06 14:00:00 9 10 Sudoeste 32 Sudoeste 0 -- -- 74
2021-02-06 13:00:00 8.4 17 Sudoeste 31 Sudoeste 0 -- -- 77
2021-02-06 12:00:00 7.6 14 Sudoeste 38 Sudoeste 0 -- -- 81
2021-02-06 11:00:00 7.3 13 Sur 41 Sur 0 -- -- 83
2021-02-06 10:00:00 6.7 21 Sur 37 Sur 0 -- -- 85
2021-02-06 09:00:00 6.3 19 Sur 46 Sur 0 -- -- 87
2021-02-06 08:00:00 6.3 14 Sur 30 Sur 0 -- -- 88
2021-02-06 07:00:00 5.9 19 Sudeste 32 Sudeste 1.4 -- -- 90
2021-02-06 06:00:00 6 11 Sudeste 21 Sudeste 1 -- -- 90
2021-02-06 05:00:00 5.7 3 Sudoeste 7 Sudoeste 0.2 -- -- 91
2021-02-06 04:00:00 6 2 Sudoeste 18 Sudeste 0.2 -- -- 88
2021-02-06 03:00:00 6.7 10 Sur 26 Sur 0 -- -- 82
2021-02-06 02:00:00 7 16 Sur 49 Sur 0 -- -- 81
2021-02-06 01:00:00 8.7 20 Sur 48 Sudeste 0 -- -- 75
2021-02-06 00:00:00 5.6 3 Sudoeste 9 Sudoeste 0 -- -- 97
2021-02-05 23:00:00 5.5 3 Norte 13 Este 0 -- -- 97
2021-02-05 22:00:00 5.5 3 Sudoeste 8 Sur 0 -- -- 96
2021-02-05 21:00:00 5 5 Sudeste 9 Este 0 -- -- 96
2021-02-05 20:00:00 5.4 0 Calma 5 Sudeste 0 -- -- 95
2021-02-05 19:00:00 6.1 6 Norte 18 Noroeste 0 -- -- 94
2021-02-05 18:00:00 6.5 5 Norte 8 Norte 0 -- -- 93
2021-02-05 17:00:00 6.7 6 Noroeste 14 Norte 0 -- -- 93
2021-02-05 16:00:00 7.7 9 Noroeste 17 Noroeste 0 -- -- 88
2021-02-05 15:00:00 9.7 12 Noroeste 18 Norte 0 -- -- 80
2021-02-05 14:00:00 10.5 11 Norte 18 Norte 0 -- -- 76
2021-02-05 13:00:00 11 11 Noroeste 16 Norte 0 -- -- 77
2021-02-05 12:00:00 11.7 6 Noroeste 15 Noroeste 0 -- -- 71
2021-02-05 11:00:00 10.2 7 Norte 12 Norte 0 -- -- 72
2021-02-05 10:00:00 7.9 8 Noroeste 14 Noroeste 0 -- -- 79
2021-02-05 09:00:00 5.3 5 Sur 10 Sur 0 -- -- 89
2021-02-05 08:00:00 4.8 3 Sudoeste 5 Sur 0 -- -- 88
2021-02-05 07:00:00 6.7 3 Norte 22 Sudeste 0 -- -- 79
2021-02-05 06:00:00 9.1 18 Sur 36 Sur 0 -- -- 70
2021-02-05 05:00:00 8.4 8 Sudeste 19 Sudeste 0 -- -- 75
2021-02-05 04:00:00 9.2 13 Sudeste 21 Sur 0 -- -- 69
2021-02-05 03:00:00 9 12 Sur 31 Sur 0 -- -- 71
2021-02-05 02:00:00 9.7 16 Sur 27 Sudeste 0 -- -- 69
2021-02-05 01:00:00 10 14 Sudeste 44 Sudeste 0 -- -- 67
2021-02-05 00:00:00 9.3 21 Sudeste 40 Sudeste 0 -- -- 73
2021-02-04 23:00:00 9.1 19 Sur 38 Sudeste 0 -- -- 73
2021-02-04 22:00:00 9 19 Sur 40 Sur 0 -- -- 73
2021-02-04 21:00:00 9.7 18 Sur 44 Sur 0 -- -- 73
2021-02-04 20:00:00 10.4 16 Sur 39 Sudeste 0 -- -- 69
2021-02-04 19:00:00 10.8 19 Sur 31 Sudeste 0 -- -- 70
2021-02-04 18:00:00 11.3 15 Sudeste 23 Sudeste 0 -- -- 69
2021-02-04 17:00:00 12.9 14 Sudeste 26 Sur 0 -- -- 61
2021-02-04 16:00:00 13.7 15 Sudeste 25 Sudeste 0 -- -- 57
2021-02-04 15:00:00 13.3 12 Este 19 Sudeste 0 -- -- 61
2021-02-04 14:00:00 13.2 11 Sudeste 31 Sudeste 0 -- -- 64
2021-02-04 13:00:00 12.2 18 Sudeste 30 Sudeste 0 -- -- 68
2021-02-04 12:00:00 11.6 17 Sudeste 31 Sudeste 0 -- -- 70
2021-02-04 11:00:00 10.2 17 Sur 31 Sur 0 -- -- 80
2021-02-04 10:00:00 9.1 20 Sur 35 Sudeste 0 -- -- 83
2021-02-04 09:00:00 8.3 18 Sudeste 41 Sudeste 0 -- -- 89
2021-02-04 08:00:00 8.4 17 Sudeste 38 Sur 0 -- -- 88
2021-02-04 07:00:00 8.4 15 Sur 38 Sur 0 -- -- 87
2021-02-04 06:00:00 8.5 18 Sur 38 Sur 0 -- -- 86
2021-02-04 05:00:00 8.6 22 Sur 51 Sur 0 -- -- 87
2021-02-04 04:00:00 8.9 21 Sur 41 Sur 0 -- -- 85
2021-02-04 03:00:00 8.8 20 Sur 48 Sudeste 0 -- -- 85
2021-02-04 02:00:00 9.1 24 Sur 48 Sur 0 -- -- 83
2021-02-04 01:00:00 9.1 21 Sur 47 Sudeste 0 -- -- 85
2021-02-04 00:00:00 9 22 Sur 53 Sudeste 0 -- -- 86
2021-02-03 23:00:00 8.8 20 Sur 36 Sudeste 0 -- -- 84
2021-02-03 22:00:00 8.3 17 Sur 36 Sur 0 -- -- 85
2021-02-03 21:00:00 8.5 22 Sur 44 Sur 0 -- -- 82
2021-02-03 20:00:00 9.1 15 Sur 33 Sur 0 -- -- 80
2021-02-03 19:00:00 9.1 21 Sur 44 Sur 0 -- -- 79
2021-02-03 18:00:00 9.5 15 Sudoeste 40 Sur 0 -- -- 78
2021-02-03 17:00:00 9.6 19 Sur 35 Sudoeste 0 -- -- 77
2021-02-03 16:00:00 10 22 Sur 41 Sur 0 -- -- 75
2021-02-03 15:00:00 9.8 23 Sur 42 Sur 0 -- -- 77
2021-02-03 14:00:00 10 24 Sur 49 Sudoeste 0 -- -- 77
2021-02-03 13:00:00 9.5 25 Sudoeste 57 Sudoeste 0 -- -- 78
2021-02-03 12:00:00 9.4 29 Sudoeste 56 Sudoeste 0 -- -- 78
2021-02-03 11:00:00 8.4 32 Sudoeste 63 Sur 0 -- -- 80
2021-02-03 10:00:00 7.3 37 Sur 64 Sur 0 -- -- 84
2021-02-03 09:00:00 5.8 37 Sur 64 Sudoeste 0 -- -- 88
2021-02-03 08:00:00 5.6 37 Sur 61 Sur 0 -- -- 88
2021-02-03 07:00:00 5.5 37 Sur 71 Sur 0 -- -- 87
2021-02-03 06:00:00 5.5 35 Sur 71 Sudoeste 0 -- -- 86
2021-02-03 05:00:00 5.9 37 Sur 62 Sur 0 -- -- 83
2021-02-03 04:00:00 6.2 39 Sur 69 Sudoeste 0 -- -- 83
2021-02-03 03:00:00 7 36 Sur 74 Sur 0 -- -- 83
2021-02-03 02:00:00 7.5 36 Sur 60 Sur 0 -- -- 81
2021-02-03 01:00:00 7.9 36 Sur 60 Sur 0 -- -- 81
2021-02-03 00:00:00 7.6 37 Sur 63 Sudoeste 0 -- -- 82
2021-02-02 23:00:00 8.1 36 Sur 60 Sudoeste 0 -- -- 81
2021-02-02 22:00:00 8.8 32 Sur 55 Sudoeste 0 -- -- 80
2021-02-02 21:00:00 8.5 18 Sur 48 Sur 0 -- -- 82
2021-02-02 20:00:00 8.1 20 Sudeste 38 Sudeste 0 -- -- 83
2021-02-02 19:00:00 8.5 17 Sudeste 34 Sudeste 0 -- -- 81
2021-02-02 18:00:00 9.8 16 Sudoeste 35 Sudoeste 0 -- -- 75
2021-02-02 17:00:00 11.6 9 Sudeste 35 Sudoeste 0 -- -- 68
2021-02-02 16:00:00 12.6 18 Sur 37 Sudoeste 0 -- -- 64
2021-02-02 15:00:00 11.5 14 Sur 47 Sudoeste 0 -- -- 71
2021-02-02 14:00:00 12.1 22 Sudoeste 44 Sudoeste 0 -- -- 65
2021-02-02 13:00:00 11.1 25 Sudoeste 46 Sudoeste 0 -- -- 75
2021-02-02 12:00:00 9.7 12 Sur 36 Sudoeste 0 -- -- 77
2021-02-02 11:00:00 8.7 21 Sudoeste 43 Sudoeste 0 -- -- 83
2021-02-02 10:00:00 9.6 18 Sudoeste 36 Sudoeste 0 -- -- 79
2021-02-02 09:00:00 8.6 16 Sudoeste 31 Oeste 0 -- -- 84
2021-02-02 08:00:00 8.6 8 Noroeste 29 Oeste 0 -- -- 80
2021-02-02 07:00:00 8.2 8 Este 43 Sudoeste 0 -- -- 82
2021-02-02 06:00:00 8.5 11 Este 26 Oeste 0 -- -- 83
2021-02-02 05:00:00 8.1 12 Sudoeste 36 Sudoeste 0 -- -- 87
2021-02-02 04:00:00 7.9 8 Sudoeste 39 Sudoeste 0 -- -- 90
2021-02-02 03:00:00 7.7 20 Sudoeste 58 Sudoeste 0 -- -- 87
2021-02-02 02:00:00 7.8 32 Sudoeste 57 Sudoeste 0 -- -- 86
2021-02-02 01:00:00 7.5 28 Sudoeste 66 Sudoeste 0 -- -- 86
2021-02-02 00:00:00 7.6 30 Sudoeste 54 Sudoeste 0 -- -- 83
2021-02-01 23:00:00 8.1 33 Sudoeste 53 Sudoeste 0 -- -- 80
2021-02-01 22:00:00 8.2 26 Sudoeste 49 Sudoeste 0 -- -- 81
2021-02-01 21:00:00 8.5 28 Sudoeste 50 Sudoeste 0 -- -- 78
2021-02-01 20:00:00 8.7 28 Sudoeste 51 Sudoeste 0 -- -- 77
2021-02-01 19:00:00 9.2 28 Sudoeste 50 Sudoeste 0 -- -- 75
2021-02-01 18:00:00 9.9 34 Oeste 55 Sudoeste 0 -- -- 72
2021-02-01 17:00:00 10.5 27 Oeste 51 Sudoeste 0 -- -- 74
2021-02-01 16:00:00 11.3 28 Oeste 51 Sudoeste 0 -- -- 71
2021-02-01 15:00:00 9.6 30 Oeste 60 Sudoeste 0 -- -- 77
2021-02-01 14:00:00 9.1 33 Oeste 55 Sudoeste 0 -- -- 77
2021-02-01 13:00:00 9.4 28 Oeste 56 Sudoeste 0 -- -- 74
2021-02-01 12:00:00 9.8 28 Oeste 67 Oeste 0 -- -- 71
2021-02-01 11:00:00 8.9 33 Oeste 61 Oeste 0 -- -- 71
2021-02-01 10:00:00 7.9 33 Oeste 88 Oeste 0 -- -- 72
2021-02-01 09:00:00 6.4 26 Oeste 61 Oeste 0 -- -- 76
2021-02-01 08:00:00 6.1 22 Oeste 47 Oeste 0 -- -- 77
2021-02-01 07:00:00 6.1 18 Oeste 46 Oeste 0 -- -- 77
2021-02-01 06:00:00 6.5 23 Oeste 51 Sudoeste 0 -- -- 75
2021-02-01 05:00:00 6.8 26 Oeste 62 Sudoeste 0 -- -- 73
2021-02-01 04:00:00 7.4 31 Oeste 55 Oeste 0 -- -- 70
2021-02-01 03:00:00 7.9 30 Oeste 60 Sudoeste 0 -- -- 71
2021-02-01 02:00:00 8.2 31 Oeste 63 Oeste 0 -- -- 73
2021-02-01 01:00:00 8.5 34 Oeste 64 Sudoeste 0 -- -- 73
2021-02-01 00:00:00 8.8 36 Sudoeste 82 Sudoeste 0 -- -- 73